createdAt,value
2018-03-24T00:00:32.042Z,71.40
2018-03-24T00:02:59.738Z,71.90
2018-03-24T00:05:27.445Z,71.90
2018-03-24T00:07:54.991Z,71.90
2018-03-24T00:10:22.707Z,71.80
2018-03-24T00:12:51.083Z,71.60
2018-03-24T00:15:18.665Z,70.90
2018-03-24T00:17:46.382Z,70.60
2018-03-24T00:20:14.705Z,70.20
2018-03-24T00:22:42.276Z,70.20
2018-03-24T00:25:09.979Z,70.40
2018-03-24T00:27:38.294Z,71.10
2018-03-24T00:30:05.929Z,70.50
2018-03-24T00:32:35.058Z,70.90
2018-03-24T00:35:03.687Z,70.90
2018-03-24T00:37:31.401Z,70.50
2018-03-24T00:39:58.963Z,70.90
2018-03-24T00:42:26.487Z,70.80
2018-03-24T00:44:54.755Z,70.70
2018-03-24T00:47:22.459Z,70.70
2018-03-24T00:49:50.046Z,70.80
2018-03-24T00:52:17.649Z,70.80
2018-03-24T00:54:46.115Z,70.60
2018-03-24T00:57:13.657Z,70.60
2018-03-24T00:59:41.850Z,70.60
2018-03-24T01:02:10.377Z,70.80
2018-03-24T01:04:38.508Z,70.80
2018-03-24T01:07:06.949Z,71.20
2018-03-24T01:09:34.683Z,71.20
2018-03-24T01:12:02.263Z,70.80
2018-03-24T01:14:30.434Z,70.90
2018-03-24T01:16:58.403Z,70.90
2018-03-24T01:19:26.733Z,70.60
2018-03-24T01:21:54.356Z,70.90
2018-03-24T01:24:22.066Z,71.10
2018-03-24T01:26:49.636Z,71.50
2018-03-24T01:29:17.950Z,71.40
2018-03-24T01:31:45.787Z,71.30
2018-03-24T01:34:14.234Z,71.60
2018-03-24T01:36:41.831Z,71.60
2018-03-24T01:39:09.351Z,71.90
2018-03-24T01:41:36.897Z,71.60
2018-03-24T01:44:04.400Z,71.50
2018-03-24T01:46:32.693Z,71.50
2018-03-24T01:49:00.333Z,71.40
2018-03-24T01:51:28.629Z,70.40
2018-03-24T01:53:56.346Z,70.40
2018-03-24T01:56:24.597Z,70.40
2018-03-24T01:58:52.116Z,70.50
2018-03-24T02:01:19.804Z,70.60
2018-03-24T02:03:47.465Z,70.40
2018-03-24T02:06:14.969Z,70.00
2018-03-24T02:08:42.551Z,70.30
2018-03-24T02:11:10.119Z,70.90
2018-03-24T02:13:38.533Z,71.00
2018-03-24T02:16:06.092Z,71.00
2018-03-24T02:18:33.667Z,71.50
2018-03-24T02:21:07.002Z,71.90
2018-03-24T02:23:34.603Z,71.90
2018-03-24T02:26:02.373Z,72.10
2018-03-24T02:28:29.938Z,72.70
2018-03-24T02:30:57.591Z,72.90
2018-03-24T02:33:25.180Z,72.90
2018-03-24T02:35:52.753Z,72.70
2018-03-24T02:38:20.277Z,72.90
2018-03-24T02:40:47.951Z,72.90
2018-03-24T02:43:15.449Z,72.70
2018-03-24T02:45:43.848Z,72.70
2018-03-24T02:48:11.373Z,72.80
2018-03-24T02:50:38.999Z,72.90
2018-03-24T02:53:06.562Z,72.80
2018-03-24T02:55:34.093Z,72.60
2018-03-24T02:58:01.673Z,71.80
2018-03-24T03:00:29.358Z,71.70
2018-03-24T03:02:57.093Z,71.30
2018-03-24T03:05:24.776Z,71.30
2018-03-24T03:07:52.777Z,71.10
2018-03-24T03:10:20.331Z,71.00
2018-03-24T03:12:47.909Z,71.30
2018-03-24T03:15:16.208Z,71.60
2018-03-24T03:17:43.869Z,71.60
2018-03-24T03:20:11.399Z,72.00
2018-03-24T03:22:39.804Z,72.30
2018-03-24T03:25:07.428Z,72.50
2018-03-24T03:27:35.458Z,72.80
2018-03-24T03:30:03.007Z,73.10
2018-03-24T03:32:30.535Z,73.60
2018-03-24T03:34:58.832Z,73.90
2018-03-24T03:37:26.379Z,74.00
2018-03-24T03:39:53.944Z,74.30
2018-03-24T03:42:22.754Z,74.60
2018-03-24T03:44:50.331Z,74.60
2018-03-24T03:47:17.904Z,74.70
2018-03-24T03:49:45.411Z,74.90
2018-03-24T03:52:14.018Z,74.70
2018-03-24T03:54:41.536Z,74.70
2018-03-24T03:57:09.055Z,74.40
2018-03-24T03:59:36.586Z,74.10
2018-03-24T04:02:04.296Z,74.00
2018-03-24T04:04:31.854Z,74.00
2018-03-24T04:06:59.381Z,74.00
2018-03-24T04:09:27.151Z,74.00
2018-03-24T04:11:54.712Z,73.70
2018-03-24T04:14:22.230Z,73.70
2018-03-24T04:16:50.504Z,73.90
2018-03-24T04:19:18.948Z,74.00
2018-03-24T04:21:46.446Z,74.00
2018-03-24T04:24:14.024Z,73.60
2018-03-24T04:26:41.550Z,73.80
2018-03-24T04:29:09.090Z,73.60
2018-03-24T04:31:36.737Z,73.60
2018-03-24T04:34:04.459Z,73.40
2018-03-24T04:36:32.714Z,73.50
2018-03-24T04:39:00.319Z,73.50
2018-03-24T04:41:27.818Z,73.50
2018-03-24T04:43:55.469Z,73.30
2018-03-24T04:46:23.308Z,73.20
2018-03-24T04:48:51.491Z,73.20
2018-03-24T04:51:19.073Z,73.30
2018-03-24T04:53:46.603Z,73.20
2018-03-24T04:56:14.163Z,73.20
2018-03-24T04:58:41.667Z,73.20
2018-03-24T05:01:09.280Z,72.90
2018-03-24T05:03:36.835Z,72.90
2018-03-24T05:06:04.354Z,73.00
2018-03-24T05:08:32.024Z,73.20
2018-03-24T05:10:59.600Z,73.20
2018-03-24T05:13:27.132Z,72.90
2018-03-24T05:15:54.635Z,72.40
2018-03-24T05:18:22.384Z,72.80
2018-03-24T05:20:49.895Z,72.80
2018-03-24T05:23:18.276Z,72.60
2018-03-24T05:25:45.800Z,73.00
2018-03-24T05:28:13.341Z,72.20
2018-03-24T05:30:41.081Z,72.20
2018-03-24T05:33:08.764Z,72.20
2018-03-24T05:35:37.057Z,72.20
2018-03-24T05:38:04.633Z,72.20
2018-03-24T05:40:32.179Z,71.90
2018-03-24T05:43:00.157Z,71.60
2018-03-24T05:45:27.671Z,71.60
2018-03-24T05:47:55.909Z,71.40
2018-03-24T05:50:23.436Z,71.20
2018-03-24T05:52:51.423Z,71.00
2018-03-24T05:55:19.457Z,70.90
2018-03-24T05:57:47.739Z,70.80
2018-03-24T06:00:15.281Z,70.80
2018-03-24T06:02:43.557Z,70.50
2018-03-24T06:05:11.060Z,70.70
2018-03-24T06:07:38.730Z,70.70
2018-03-24T06:10:06.243Z,70.30
2018-03-24T06:12:34.552Z,69.60
2018-03-24T06:15:02.755Z,69.60
2018-03-24T06:17:30.307Z,69.30
2018-03-24T06:19:57.870Z,68.80
2018-03-24T06:22:25.634Z,69.00
2018-03-24T06:24:53.324Z,69.20
2018-03-24T06:27:20.861Z,68.90
2018-03-24T06:29:48.385Z,69.10
2018-03-24T06:32:16.128Z,68.60
2018-03-24T06:34:44.423Z,68.00
2018-03-24T06:37:14.110Z,67.90
2018-03-24T06:39:42.431Z,67.70
2018-03-24T06:42:09.948Z,67.70
2018-03-24T06:44:37.692Z,67.40
2018-03-24T06:47:06.106Z,67.30
2018-03-24T06:49:34.484Z,66.30
2018-03-24T06:52:02.914Z,64.80
2018-03-24T06:54:30.546Z,64.80
2018-03-24T06:56:58.447Z,65.40
2018-03-24T06:59:25.990Z,64.80
2018-03-24T07:01:53.556Z,64.70
2018-03-24T07:04:21.688Z,64.20
2018-03-24T07:06:49.370Z,64.00
2018-03-24T07:09:16.912Z,64.20
2018-03-24T07:11:47.361Z,64.40
2018-03-24T07:14:14.992Z,64.40
2018-03-24T07:16:42.993Z,64.40
2018-03-24T07:19:10.556Z,64.30
2018-03-24T07:21:39.290Z,63.90
2018-03-24T07:24:11.729Z,63.90
2018-03-24T07:26:39.371Z,63.40
2018-03-24T07:29:06.887Z,63.40
2018-03-24T07:31:34.421Z,62.60
2018-03-24T07:34:01.958Z,63.00
2018-03-24T07:36:29.569Z,62.70
2018-03-24T07:38:57.127Z,62.80
2018-03-24T07:41:24.653Z,61.90
2018-03-24T07:43:52.374Z,61.60
2018-03-24T07:46:20.721Z,61.90
2018-03-24T07:48:49.507Z,61.40
2018-03-24T07:51:17.130Z,61.40
2018-03-24T07:53:44.753Z,60.40
2018-03-24T07:56:13.068Z,59.50
2018-03-24T07:58:41.450Z,59.50
2018-03-24T08:01:09.551Z,59.90
2018-03-24T08:03:37.081Z,59.60
2018-03-24T08:06:04.679Z,59.20
2018-03-24T08:08:33.182Z,59.20
2018-03-24T08:11:00.796Z,59.10
2018-03-24T08:13:28.327Z,58.80
2018-03-24T08:15:55.926Z,58.70
2018-03-24T08:18:23.438Z,58.10
2018-03-24T08:20:51.012Z,58.00
2018-03-24T08:23:18.533Z,57.90
2018-03-24T08:25:46.889Z,57.90
2018-03-24T08:28:14.538Z,57.00
2018-03-24T08:30:42.097Z,57.40
2018-03-24T08:33:09.685Z,57.20
2018-03-24T08:35:37.241Z,56.90
2018-03-24T08:38:05.126Z,56.90
2018-03-24T08:40:34.070Z,56.10
2018-03-24T08:43:02.615Z,55.70
2018-03-24T08:45:30.603Z,56.20
2018-03-24T08:47:58.508Z,55.40
2018-03-24T08:50:26.049Z,55.00
2018-03-24T08:52:53.603Z,54.10
2018-03-24T08:55:22.216Z,54.20
2018-03-24T08:57:49.773Z,54.40
2018-03-24T09:00:17.387Z,54.20
2018-03-24T09:02:44.966Z,54.30
2018-03-24T09:05:12.534Z,54.40
2018-03-24T09:07:40.286Z,54.30
2018-03-24T09:10:07.862Z,53.90
2018-03-24T09:12:35.405Z,53.50
2018-03-24T09:15:03.121Z,53.00
2018-03-24T09:17:30.582Z,51.70
2018-03-24T09:19:59.750Z,49.90
2018-03-24T09:22:27.405Z,49.50
2018-03-24T09:24:54.973Z,49.10
2018-03-24T09:27:22.594Z,48.90
2018-03-24T09:29:50.270Z,49.10
2018-03-24T09:32:17.813Z,48.80
2018-03-24T09:34:45.443Z,49.00
2018-03-24T09:37:13.008Z,50.40
2018-03-24T09:39:40.533Z,50.80
2018-03-24T09:42:08.157Z,50.70
2018-03-24T09:44:35.658Z,49.00
2018-03-24T09:47:03.275Z,48.80
2018-03-24T09:49:30.869Z,48.40
2018-03-24T09:51:58.571Z,48.40
2018-03-24T09:54:26.904Z,47.20
2018-03-24T09:56:54.543Z,47.10
2018-03-24T09:59:22.138Z,46.80
2018-03-24T10:01:49.676Z,47.20
2018-03-24T10:04:17.421Z,47.00
2018-03-24T10:06:44.990Z,46.10
2018-03-24T10:09:12.767Z,46.30
2018-03-24T10:11:40.410Z,46.40
2018-03-24T10:14:07.981Z,46.80
2018-03-24T10:16:35.651Z,46.20
2018-03-24T10:19:03.407Z,46.60
2018-03-24T10:24:45.297Z,46.90
2018-03-24T10:27:12.855Z,46.80
2018-03-24T10:29:41.481Z,46.10
2018-03-24T10:32:09.038Z,46.10
2018-03-24T10:34:36.554Z,46.20
2018-03-24T10:37:05.233Z,44.30
2018-03-24T10:39:32.755Z,44.30
2018-03-24T10:42:00.289Z,44.00
2018-03-24T10:44:27.806Z,43.80
2018-03-24T10:46:55.369Z,44.00
2018-03-24T10:49:22.923Z,44.30
2018-03-24T10:51:50.481Z,44.80
2018-03-24T10:54:18.286Z,45.30
2018-03-24T10:56:46.194Z,45.60
2018-03-24T10:59:13.777Z,44.50
2018-03-24T11:01:41.801Z,44.20
2018-03-24T11:04:09.391Z,44.10
2018-03-24T11:06:36.946Z,44.20
2018-03-24T11:09:04.560Z,44.60
2018-03-24T11:11:32.954Z,43.80
2018-03-24T11:14:00.638Z,44.40
2018-03-24T11:16:28.189Z,44.20
2018-03-24T11:18:56.491Z,44.10
2018-03-24T11:21:24.266Z,43.90
2018-03-24T11:23:51.838Z,43.90
2018-03-24T11:26:19.592Z,44.20
2018-03-24T11:28:47.207Z,44.20
2018-03-24T11:31:14.751Z,43.60
2018-03-24T11:33:43.078Z,43.00
2018-03-24T11:36:10.702Z,43.10
2018-03-24T11:38:38.299Z,43.00
2018-03-24T11:41:06.401Z,42.30
2018-03-24T11:43:34.143Z,42.10
2018-03-24T11:46:01.688Z,42.10
2018-03-24T11:48:29.287Z,42.80
2018-03-24T11:50:57.650Z,42.90
2018-03-24T11:53:37.061Z,42.70
2018-03-24T11:56:04.585Z,42.70
2018-03-24T11:58:32.339Z,43.40
2018-03-24T12:01:00.650Z,43.20
2018-03-24T12:03:28.464Z,43.20
2018-03-24T12:05:55.992Z,43.40
2018-03-24T12:08:24.362Z,43.20
2018-03-24T12:10:51.910Z,42.50
2018-03-24T12:13:19.776Z,42.30
2018-03-24T12:15:47.525Z,42.60
2018-03-24T12:18:15.090Z,42.20
2018-03-24T12:20:42.714Z,42.50
2018-03-24T12:23:10.395Z,42.50
2018-03-24T12:25:38.748Z,41.70
2018-03-24T12:28:06.564Z,41.70
2018-03-24T12:30:34.254Z,41.80
2018-03-24T12:33:02.036Z,42.30
2018-03-24T12:35:30.418Z,42.10
2018-03-24T12:37:58.076Z,42.00
2018-03-24T12:40:25.710Z,41.70
2018-03-24T12:42:54.303Z,41.60
2018-03-24T12:45:21.948Z,41.10
2018-03-24T12:47:49.464Z,41.10
2018-03-24T12:50:17.816Z,41.10
2018-03-24T12:52:45.379Z,41.10
2018-03-24T12:55:13.218Z,41.20
2018-03-24T12:57:40.941Z,41.20
2018-03-24T13:00:09.371Z,42.20
2018-03-24T13:02:36.949Z,42.20
2018-03-24T13:05:04.526Z,40.50
2018-03-24T13:07:32.474Z,41.10
2018-03-24T13:10:00.011Z,40.90
2018-03-24T13:12:27.669Z,40.90
2018-03-24T13:14:55.206Z,41.10
2018-03-24T13:17:22.797Z,41.10
2018-03-24T13:19:50.384Z,41.50
2018-03-24T13:22:18.154Z,40.80
2018-03-24T13:24:46.498Z,40.50
2018-03-24T13:27:14.043Z,40.50
2018-03-24T13:29:41.723Z,40.70
2018-03-24T13:32:09.468Z,42.90
2018-03-24T13:34:37.119Z,41.10
2018-03-24T13:37:05.468Z,42.60
2018-03-24T13:39:33.188Z,42.50
2018-03-24T13:42:00.950Z,43.00
2018-03-24T13:44:28.505Z,43.40
2018-03-24T13:46:56.090Z,44.50
2018-03-24T13:49:23.661Z,45.30
2018-03-24T13:51:51.251Z,46.60
2018-03-24T13:54:19.872Z,48.70
2018-03-24T13:56:47.432Z,48.70
2018-03-24T13:59:15.016Z,49.10
2018-03-24T14:01:42.577Z,49.50
2018-03-24T14:04:10.429Z,49.30
2018-03-24T14:06:38.194Z,48.50
2018-03-24T14:09:06.397Z,48.80
2018-03-24T14:11:34.515Z,48.50
2018-03-24T14:14:02.222Z,49.20
2018-03-24T14:16:29.786Z,49.40
2018-03-24T14:18:57.311Z,49.40
2018-03-24T14:21:25.285Z,49.80
2018-03-24T14:23:52.816Z,49.60
2018-03-24T14:26:21.265Z,50.20
2018-03-24T14:28:48.788Z,50.20
2018-03-24T14:31:16.554Z,49.90
2018-03-24T14:33:44.673Z,50.00
2018-03-24T14:36:15.053Z,50.30
2018-03-24T14:38:42.604Z,50.30
2018-03-24T14:41:10.377Z,50.20
2018-03-24T14:43:38.061Z,51.20
2018-03-24T14:46:05.635Z,50.60
2018-03-24T14:48:33.645Z,50.80
2018-03-24T14:51:01.175Z,51.10
2018-03-24T14:53:29.492Z,50.70
2018-03-24T14:55:57.059Z,50.70
2018-03-24T14:58:24.583Z,50.50
2018-03-24T15:00:53.001Z,50.90
2018-03-24T15:03:20.558Z,50.90
2018-03-24T15:05:48.093Z,50.90
2018-03-24T15:08:16.773Z,50.70
2018-03-24T15:10:45.998Z,50.80
2018-03-24T15:13:13.556Z,50.90
2018-03-24T15:15:41.090Z,51.10
2018-03-24T15:18:09.359Z,51.30
2018-03-24T15:20:36.857Z,51.30
2018-03-24T15:23:04.394Z,51.70
2018-03-24T15:25:32.665Z,52.20
2018-03-24T15:28:00.956Z,52.20
2018-03-24T15:30:40.297Z,52.20
2018-03-24T15:33:19.583Z,52.60
2018-03-24T15:38:51.508Z,52.90
2018-03-24T15:41:19.784Z,52.90
2018-03-24T15:43:47.347Z,53.10
2018-03-24T15:46:14.894Z,53.30
2018-03-24T15:48:43.246Z,53.10
2018-03-24T15:51:11.850Z,53.00
2018-03-24T15:53:39.535Z,53.10
2018-03-24T15:56:08.082Z,53.40
2018-03-24T15:58:35.590Z,53.40
2018-03-24T16:01:03.343Z,53.60
2018-03-24T16:03:30.862Z,54.10
2018-03-24T16:05:58.411Z,53.70
2018-03-24T16:08:26.026Z,53.60
2018-03-24T16:10:53.796Z,53.40
2018-03-24T16:13:21.478Z,53.20
2018-03-24T16:15:49.105Z,53.40
2018-03-24T16:18:17.194Z,53.60
2018-03-24T16:20:45.255Z,53.60
2018-03-24T16:23:12.800Z,54.10
2018-03-24T16:25:40.362Z,53.90
2018-03-24T16:28:07.895Z,54.20
2018-03-24T16:30:35.425Z,54.90
2018-03-24T16:33:03.136Z,54.90
2018-03-24T16:35:31.452Z,55.10
2018-03-24T16:37:59.776Z,55.20
2018-03-24T16:40:28.169Z,55.40
2018-03-24T16:42:55.972Z,55.40
2018-03-24T16:45:23.610Z,55.60
2018-03-24T16:47:52.380Z,55.70
2018-03-24T16:50:20.703Z,56.10
2018-03-24T16:52:48.229Z,56.10
2018-03-24T16:55:15.874Z,55.90
2018-03-24T16:57:43.493Z,56.30
2018-03-24T17:00:11.230Z,56.50
2018-03-24T17:02:39.110Z,57.00
2018-03-24T17:05:06.675Z,56.90
2018-03-24T17:07:34.223Z,57.00
2018-03-24T17:10:01.775Z,57.30
2018-03-24T17:12:29.795Z,57.30
2018-03-24T17:14:58.329Z,58.10
2018-03-24T17:17:25.869Z,57.70
2018-03-24T17:19:53.664Z,57.90
2018-03-24T17:22:21.206Z,58.20
2018-03-24T17:24:48.752Z,58.20
2018-03-24T17:27:17.067Z,58.60
2018-03-24T17:29:44.611Z,58.60
2018-03-24T17:32:12.199Z,58.90
2018-03-24T17:34:39.895Z,59.20
2018-03-24T17:37:07.471Z,59.30
2018-03-24T17:39:35.028Z,59.20
2018-03-24T17:42:02.840Z,59.30
2018-03-24T17:44:30.987Z,59.40
2018-03-24T17:46:58.541Z,59.50
2018-03-24T17:49:26.940Z,59.70
2018-03-24T17:51:54.606Z,59.60
2018-03-24T17:54:22.299Z,59.80
2018-03-24T17:56:49.847Z,60.10
2018-03-24T17:59:17.440Z,60.00
2018-03-24T18:01:45.996Z,60.80
2018-03-24T18:04:13.551Z,61.10
2018-03-24T18:06:41.287Z,61.20
2018-03-24T18:09:08.813Z,61.20
2018-03-24T18:11:37.189Z,62.30
2018-03-24T18:14:04.721Z,62.30
2018-03-24T18:16:32.274Z,62.50
2018-03-24T18:19:00.254Z,62.70
2018-03-24T18:21:28.772Z,62.90
2018-03-24T18:23:59.105Z,63.60
2018-03-24T18:26:26.736Z,63.60
2018-03-24T18:28:54.259Z,63.80
2018-03-24T18:31:22.179Z,64.00
2018-03-24T18:33:49.972Z,64.10
2018-03-24T18:36:18.392Z,64.40
2018-03-24T18:38:45.963Z,64.50
2018-03-24T18:41:13.491Z,64.80
2018-03-24T18:43:41.178Z,65.90
2018-03-24T18:46:08.692Z,65.20
2018-03-24T18:48:36.338Z,65.20
2018-03-24T18:51:04.213Z,65.20
2018-03-24T18:53:31.763Z,65.60
2018-03-24T18:55:59.285Z,65.70
2018-03-24T18:58:26.892Z,66.40
2018-03-24T19:00:55.050Z,66.20
2018-03-24T19:03:22.615Z,66.20
2018-03-24T19:05:51.074Z,66.10
2018-03-24T19:08:18.707Z,66.40
2018-03-24T19:10:47.166Z,66.40
2018-03-24T19:13:15.956Z,66.80
2018-03-24T19:15:43.595Z,67.00
2018-03-24T19:18:12.133Z,67.00
2018-03-24T19:20:39.821Z,67.00
2018-03-24T19:23:08.211Z,67.10
2018-03-24T19:25:36.616Z,67.30
2018-03-24T19:28:04.398Z,67.30
2018-03-24T19:30:31.933Z,67.50
2018-03-24T19:32:59.519Z,67.60
2018-03-24T19:35:27.586Z,67.50
2018-03-24T19:37:56.549Z,67.70
2018-03-24T19:40:24.084Z,67.60
2018-03-24T19:42:53.599Z,67.90
2018-03-24T19:45:23.322Z,68.20
2018-03-24T19:47:50.879Z,68.20
2018-03-24T19:50:19.692Z,68.40
2018-03-24T19:52:47.645Z,68.40
2018-03-24T19:55:15.255Z,68.40
2018-03-24T19:57:43.081Z,68.50
2018-03-24T20:00:11.361Z,68.80
2018-03-24T20:02:39.062Z,68.70
2018-03-24T20:05:06.839Z,68.70
2018-03-24T20:07:35.421Z,69.10
2018-03-24T20:10:03.142Z,68.90
2018-03-24T20:12:30.727Z,69.20
2018-03-24T20:14:58.356Z,69.20
2018-03-24T20:17:26.228Z,69.20
2018-03-24T20:19:58.127Z,69.40
2018-03-24T20:22:25.659Z,69.80
2018-03-24T20:24:53.212Z,69.50
2018-03-24T20:27:20.997Z,69.80
2018-03-24T20:29:48.748Z,69.60
2018-03-24T20:32:16.516Z,69.90
2018-03-24T20:34:44.912Z,70.30
2018-03-24T20:37:13.472Z,70.60
2018-03-24T20:39:41.302Z,69.90
2018-03-24T20:42:10.542Z,70.00
2018-03-24T20:44:38.180Z,69.90
2018-03-24T20:47:05.716Z,69.80
2018-03-24T20:49:33.273Z,70.00
2018-03-24T20:52:00.873Z,70.00
2018-03-24T20:54:28.453Z,70.30
2018-03-24T20:56:56.089Z,70.40
2018-03-24T20:59:23.665Z,70.50
2018-03-24T21:01:51.616Z,70.50
2018-03-24T21:04:19.999Z,70.30
2018-03-24T21:06:47.530Z,70.30
2018-03-24T21:09:15.956Z,70.40
2018-03-24T21:11:44.147Z,70.40
2018-03-24T21:14:11.727Z,70.40
2018-03-24T21:16:39.295Z,70.60
2018-03-24T21:19:06.821Z,70.80
2018-03-24T21:24:08.190Z,70.80
2018-03-24T21:26:35.771Z,70.70
2018-03-24T21:29:03.849Z,70.60
2018-03-24T21:31:31.532Z,70.80
2018-03-24T21:33:59.737Z,70.90
2018-03-24T21:36:27.283Z,70.80
2018-03-24T21:38:54.816Z,70.90
2018-03-24T21:41:23.288Z,70.90
2018-03-24T21:43:51.106Z,70.90
2018-03-24T21:46:18.875Z,70.90
2018-03-24T21:48:46.728Z,71.00
2018-03-24T21:51:14.969Z,70.90
2018-03-24T21:53:42.507Z,71.00
2018-03-24T21:56:10.320Z,71.00
2018-03-24T21:58:37.858Z,71.00
2018-03-24T22:01:05.736Z,71.10
2018-03-24T22:03:33.250Z,71.20
2018-03-24T22:06:00.919Z,71.10
2018-03-24T22:08:28.440Z,71.20
2018-03-24T22:10:55.967Z,71.00
2018-03-24T22:13:23.672Z,71.20
2018-03-24T22:15:51.243Z,71.20
2018-03-24T22:18:19.393Z,71.20
2018-03-24T22:20:46.941Z,71.40
2018-03-24T22:23:14.454Z,71.20
2018-03-24T22:25:42.031Z,71.00
2018-03-24T22:28:09.721Z,71.40
2018-03-24T22:30:37.256Z,71.20
2018-03-24T22:33:04.898Z,71.00
2018-03-24T22:35:32.849Z,71.10
2018-03-24T22:38:01.347Z,71.10
2018-03-24T22:40:28.881Z,71.00
2018-03-24T22:42:56.431Z,70.80
2018-03-24T22:45:24.099Z,70.70
2018-03-24T22:47:51.656Z,70.80
2018-03-24T22:50:19.222Z,71.70
2018-03-24T22:52:46.945Z,71.00
2018-03-24T22:55:15.093Z,70.90
2018-03-24T22:57:42.620Z,71.00
2018-03-24T23:00:10.140Z,71.10
2018-03-24T23:02:38.562Z,70.90
2018-03-24T23:05:06.465Z,70.90
2018-03-24T23:07:34.633Z,71.20
2018-03-24T23:10:02.157Z,71.00
2018-03-24T23:12:29.899Z,70.90
2018-03-24T23:14:57.480Z,70.90
2018-03-24T23:17:25.020Z,71.10
2018-03-24T23:19:52.968Z,71.10
2018-03-24T23:22:21.347Z,71.40
2018-03-24T23:24:49.940Z,71.40
2018-03-24T23:27:19.048Z,71.40
2018-03-24T23:29:47.348Z,71.40
2018-03-24T23:32:15.016Z,71.40
2018-03-24T23:34:42.920Z,71.50
2018-03-24T23:37:10.490Z,71.50
2018-03-24T23:39:38.015Z,71.50
2018-03-24T23:42:05.588Z,71.70
2018-03-24T23:44:33.491Z,71.90
2018-03-24T23:47:01.078Z,72.00
2018-03-24T23:49:28.617Z,72.10
2018-03-24T23:51:56.897Z,72.30
2018-03-24T23:54:25.192Z,72.40
2018-03-24T23:56:52.831Z,72.30
2018-03-24T23:59:21.107Z,72.60
